Time;durP1;ratioP1;P1;durP2;ratioP2;P2;SDS_P1;SDS_P2;PMS_P1;PMS_P2;Temp;Humidity;BMP_temperature;BMP_pressure;BME280_temperature;BME280_humidity;BME280_pressure;Samples;Min_cycle;Max_cycle;Signal;HPM_P1;HPM_P2
2020/12/12 00:00:07;;;;;;;139.97;63.13;;;;;;;-0.32;81.50;98931.45;127141;1098;23369;-78
2020/12/12 00:02:56;;;;;;;145.90;60.70;;;;;;;-0.29;82.05;98922.33;126892;1098;25066;-77
2020/12/12 00:05:25;;;;;;;159.03;66.00;;;;;;;-0.25;82.21;98933.96;126881;1098;26991;-78
2020/12/12 00:07:54;;;;;;;144.83;63.00;;;;;;;-0.23;82.38;98931.55;127428;1098;23324;-78
2020/12/12 00:10:26;;;;;;;142.07;60.97;;;;;;;-0.20;82.20;98935.39;127694;1098;23393;-78
2020/12/12 00:12:55;;;;;;;134.80;59.67;;;;;;;-0.17;82.50;98938.05;127547;1098;23592;-78
2020/12/12 00:15:25;;;;;;;129.43;56.57;;;;;;;-0.14;82.52;98937.16;127375;1098;23360;-79
2020/12/12 00:17:54;;;;;;;126.87;54.65;;;;;;;-0.12;82.55;98942.20;127211;1090;23326;-78
2020/12/12 00:20:24;;;;;;;126.57;53.50;;;;;;;-0.14;81.95;98939.13;127221;1090;28833;-78
2020/12/12 00:22:53;;;;;;;134.33;56.83;;;;;;;-0.12;82.40;98942.97;127458;1098;23482;-78
2020/12/12 00:25:21;;;;;;;119.97;52.07;;;;;;;-0.11;82.99;98941.78;127342;1098;23392;-78
2020/12/12 00:27:50;;;;;;;138.97;54.27;;;;;;;-0.12;82.29;98939.45;127289;1098;23405;-78
2020/12/12 00:30:19;;;;;;;142.25;56.40;;;;;;;-0.11;83.23;98941.78;127521;1098;23409;-78
2020/12/12 00:32:48;;;;;;;151.23;59.20;;;;;;;-0.09;82.49;98930.36;127626;1098;23383;-78
2020/12/12 00:35:17;;;;;;;135.63;58.33;;;;;;;-0.08;82.84;98934.63;127433;1090;27846;-77
2020/12/12 00:37:47;;;;;;;126.47;54.70;;;;;;;-0.04;83.31;98944.30;127038;1098;23382;-77
2020/12/12 00:40:16;;;;;;;136.20;56.65;;;;;;;-0.05;83.00;98942.00;127155;1098;23403;-77
2020/12/12 00:42:45;;;;;;;127.77;55.33;;;;;;;-0.02;83.26;98946.59;126684;1098;23419;-77
2020/12/12 00:45:14;;;;;;;142.37;56.87;;;;;;;0.02;83.57;98938.27;127241;1090;23312;-78
2020/12/12 00:47:43;;;;;;;131.60;54.07;;;;;;;0.06;82.84;98938.92;127407;1098;23324;-78
2020/12/12 00:50:12;;;;;;;135.20;56.65;;;;;;;0.08;83.46;98940.03;127295;1098;23520;-79
2020/12/12 00:52:42;;;;;;;127.37;55.77;;;;;;;0.13;82.94;98939.45;127963;1098;23418;-79
2020/12/12 00:55:11;;;;;;;134.80;56.05;;;;;;;0.17;83.52;98948.34;127711;1098;23344;-79
2020/12/12 00:57:40;;;;;;;125.63;54.90;;;;;;;0.18;82.74;98944.41;127820;1098;23969;-79
2020/12/12 01:00:09;;;;;;;128.47;53.93;;;;;;;0.22;82.87;98949.77;127956;1098;26350;-79
2020/12/12 01:02:38;;;;;;;131.47;56.53;;;;;;;0.22;83.26;98950.55;127770;1098;23383;-79
2020/12/12 01:05:07;;;;;;;133.40;55.60;;;;;;;0.22;83.66;98947.03;127315;1098;23382;-77
2020/12/12 01:07:37;;;;;;;133.70;55.23;;;;;;;0.24;83.26;98959.11;127227;1098;27787;-78
2020/12/12 01:10:06;;;;;;;132.00;54.70;;;;;;;0.27;83.81;98952.72;127016;1098;23380;-77
2020/12/12 01:12:35;;;;;;;116.10;51.23;;;;;;;0.28;83.01;98948.78;126672;1098;23476;-77
2020/12/12 01:15:04;;;;;;;128.33;54.63;;;;;;;0.31;83.29;98944.40;127463;1090;23359;-77
2020/12/12 01:17:35;;;;;;;140.73;55.30;;;;;;;0.32;83.27;98941.20;127453;1098;23346;-77
2020/12/12 01:20:04;;;;;;;138.87;53.83;;;;;;;0.31;83.04;98939.66;126998;1098;24841;-78
2020/12/12 01:22:34;;;;;;;133.03;52.17;;;;;;;0.31;83.80;98945.14;127840;1098;23377;-78
2020/12/12 01:25:04;;;;;;;132.30;49.07;;;;;;;0.32;83.77;98932.97;127105;1098;23468;-78
2020/12/12 01:27:34;;;;;;;126.92;47.50;;;;;;;0.32;83.36;98941.20;127269;1098;24665;-77
2020/12/12 01:30:03;;;;;;;108.80;45.07;;;;;;;0.33;83.58;98937.23;127429;1090;23334;-78
2020/12/12 01:32:32;;;;;;;110.57;47.13;;;;;;;0.34;83.29;98947.02;127577;1098;26802;-78
2020/12/12 01:35:01;;;;;;;116.90;48.03;;;;;;;0.35;84.08;98945.80;127637;1098;23592;-78
2020/12/12 01:37:30;;;;;;;120.57;46.93;;;;;;;0.38;83.47;98944.16;127675;1098;24424;-78
2020/12/12 01:39:59;;;;;;;125.23;47.10;;;;;;;0.39;83.31;98938.24;127539;1098;23392;-78
2020/12/12 01:42:31;;;;;;;122.43;48.27;;;;;;;0.40;83.43;98938.98;127587;1098;23582;-78
2020/12/12 01:45:01;;;;;;;111.90;44.47;;;;;;;0.42;83.45;98942.05;127487;1098;23463;-78
2020/12/12 01:47:30;;;;;;;109.20;44.25;;;;;;;0.42;83.90;98945.58;127396;1098;23344;-77
2020/12/12 01:49:59;;;;;;;110.40;44.73;;;;;;;0.45;83.87;98930.98;127304;1098;23433;-77
2020/12/12 01:52:29;;;;;;;108.73;46.13;;;;;;;0.49;84.06;98933.59;127541;1098;23329;-78
2020/12/12 01:54:58;;;;;;;114.45;46.18;;;;;;;0.50;84.01;98940.61;127712;1098;23324;-78
2020/12/12 01:57:27;;;;;;;135.57;48.37;;;;;;;0.52;83.47;98932.70;127535;1098;23472;-77
2020/12/12 01:59:56;;;;;;;120.50;46.87;;;;;;;0.53;84.17;98934.25;127252;1098;23355;-77
2020/12/12 02:02:26;;;;;;;125.77;45.63;;;;;;;0.54;84.13;98933.02;127261;1098;26350;-78
2020/12/12 02:04:56;;;;;;;114.67;46.20;;;;;;;0.56;83.75;98933.37;127329;1098;23410;-77
2020/12/12 02:07:26;;;;;;;105.60;43.65;;;;;;;0.55;83.50;98938.09;126978;1098;23485;-77
2020/12/12 02:09:55;;;;;;;115.17;45.40;;;;;;;0.55;83.84;98938.09;127085;1098;23809;-78
2020/12/12 02:12:25;;;;;;;106.17;43.65;;;;;;;0.56;83.39;98931.38;127237;1098;23385;-77
2020/12/12 02:14:54;;;;;;;114.10;42.47;;;;;;;0.56;83.42;98928.63;127197;1098;23294;-77
2020/12/12 02:17:23;;;;;;;111.47;38.63;;;;;;;0.56;83.82;98928.63;127148;1093;23346;-77
2020/12/12 02:19:52;;;;;;;108.80;40.03;;;;;;;0.54;83.78;98927.53;127556;1098;23865;-78
2020/12/12 02:22:20;;;;;;;111.17;41.97;;;;;;;0.55;83.72;98923.59;127784;1098;23356;-77
2020/12/12 02:24:53;;;;;;;111.75;45.75;;;;;;;0.60;84.23;98929.27;127099;1098;23336;-77
2020/12/12 02:27:22;;;;;;;114.90;46.20;;;;;;;0.63;83.66;98919.39;127242;1098;23435;-77
2020/12/12 02:29:52;;;;;;;124.03;48.33;;;;;;;0.63;84.31;98922.91;127211;1098;23534;-77
2020/12/12 02:32:21;;;;;;;112.60;43.52;;;;;;;0.63;83.79;98917.41;127336;1098;25166;-79
2020/12/12 02:34:50;;;;;;;114.13;42.23;;;;;;;0.62;83.45;98923.36;127719;1098;23448;-79
2020/12/12 02:37:19;;;;;;;119.00;44.63;;;;;;;0.61;83.61;98922.59;127609;1098;23438;-79
2020/12/12 02:39:48;;;;;;;119.17;43.33;;;;;;;0.62;83.90;98913.13;127740;1098;27850;-78
2020/12/12 02:42:17;;;;;;;113.55;43.95;;;;;;;0.64;83.52;98918.94;127862;1098;23440;-79
2020/12/12 02:44:50;;;;;;;109.30;42.47;;;;;;;0.67;83.78;98911.80;127644;1098;23414;-79
2020/12/12 02:47:19;;;;;;;112.13;41.27;;;;;;;0.67;83.90;98918.06;127708;1099;23322;-78
2020/12/12 02:50:04;;;;;;;106.00;43.90;;;;;;;0.67;83.70;98911.80;128170;1098;23446;-78
2020/12/12 02:52:33;;;;;;;113.70;40.30;;;;;;;0.69;83.57;98912.12;128340;1098;23923;-78
2020/12/12 02:55:02;;;;;;;111.00;38.90;;;;;;;0.68;83.92;98911.34;127630;1098;24963;-79
2020/12/12 02:57:31;;;;;;;108.03;41.90;;;;;;;0.67;83.75;98909.82;127540;1098;24486;-79
2020/12/12 03:00:00;;;;;;;114.00;43.27;;;;;;;0.69;83.85;98904.65;127619;1098;23479;-78
2020/12/12 03:02:28;;;;;;;105.67;42.73;;;;;;;0.71;84.04;98899.48;127550;1098;24969;-79
2020/12/12 03:04:57;;;;;;;106.60;42.37;;;;;;;0.73;84.06;98899.80;127615;1098;23320;-78
2020/12/12 03:07:26;;;;;;;103.97;41.33;;;;;;;0.73;84.32;98910.02;127527;1098;23511;-77
2020/12/12 03:09:55;;;;;;;103.90;39.33;;;;;;;0.73;84.02;98908.04;127137;1098;23310;-77
2020/12/12 03:12:24;;;;;;;102.90;37.87;;;;;;;0.72;84.33;98908.49;127427;1098;23379;-77
2020/12/12 03:14:53;;;;;;;114.15;41.45;;;;;;;0.71;84.01;98904.20;127344;1098;23431;-77
2020/12/12 03:17:23;;;;;;;111.53;42.10;;;;;;;0.74;84.25;98906.07;127323;1093;23568;-77
2020/12/12 03:19:52;;;;;;;95.65;36.93;;;;;;;0.75;83.64;98905.61;126976;1098;23521;-77
2020/12/12 03:22:21;;;;;;;105.53;41.37;;;;;;;0.76;84.23;98898.92;127078;1098;26375;-78
2020/12/12 03:24:50;;;;;;;106.60;42.83;;;;;;;0.78;84.01;98896.50;127162;1098;27140;-77
2020/12/12 03:27:20;;;;;;;104.03;38.87;;;;;;;0.77;84.25;98891.42;127791;1098;23559;-77
2020/12/12 03:29:50;;;;;;;104.45;38.50;;;;;;;0.77;84.21;98897.70;127137;1098;23448;-77
2020/12/12 03:32:19;;;;;;;95.60;37.20;;;;;;;0.77;83.56;98896.92;127222;1098;27771;-78
2020/12/12 03:34:50;;;;;;;102.95;37.20;;;;;;;0.76;84.30;98895.41;127575;1098;23348;-78
2020/12/12 03:37:19;;;;;;;103.87;38.97;;;;;;;0.77;84.18;98902.42;127315;1098;23380;-78
2020/12/12 03:39:48;;;;;;;100.67;40.20;;;;;;;0.79;83.59;98891.75;127214;1098;26809;-78
2020/12/12 03:42:17;;;;;;;92.10;37.73;;;;;;;0.80;84.09;98899.56;126993;1098;23385;-78
2020/12/12 03:44:46;;;;;;;111.47;42.83;;;;;;;0.79;84.05;98902.73;126928;1098;23419;-79
2020/12/12 03:47:15;;;;;;;105.03;40.40;;;;;;;0.81;83.91;98900.31;127247;1098;23474;-79
2020/12/12 03:49:45;;;;;;;105.05;39.70;;;;;;;0.80;83.80;98896.82;127144;1098;23298;-78
2020/12/12 03:52:18;;;;;;;104.30;41.10;;;;;;;0.81;84.26;98897.56;127232;1098;23385;-78
2020/12/12 03:54:47;;;;;;;107.50;39.77;;;;;;;0.80;84.13;98902.31;127770;1098;23367;-78
2020/12/12 03:57:16;;;;;;;99.67;40.70;;;;;;;0.83;83.65;98915.14;127735;1098;23346;-78
2020/12/12 03:59:45;;;;;;;92.43;36.33;;;;;;;0.87;83.98;98908.77;127364;1098;23411;-78
2020/12/12 04:02:14;;;;;;;94.67;36.53;;;;;;;0.88;83.55;98907.54;127627;1098;27849;-78
2020/12/12 04:04:43;;;;;;;97.03;39.10;;;;;;;0.87;83.62;98903.27;127613;1098;23354;-78
2020/12/12 04:07:12;;;;;;;97.80;36.10;;;;;;;0.85;83.89;98908.45;127566;1098;23382;-78
2020/12/12 04:09:41;;;;;;;94.87;34.77;;;;;;;0.86;84.14;98909.97;127056;1098;23315;-77
2020/12/12 04:12:10;;;;;;;90.85;32.20;;;;;;;0.83;84.16;98906.13;126918;1098;25034;-77
2020/12/12 04:14:39;;;;;;;87.40;35.50;;;;;;;0.83;83.93;98903.37;127073;1098;28123;-77
2020/12/12 04:17:08;;;;;;;94.27;37.23;;;;;;;0.84;84.35;98907.67;126939;1098;23867;-77
2020/12/12 04:19:37;;;;;;;90.45;35.15;;;;;;;0.83;83.79;98903.37;127069;1099;23481;-78
2020/12/12 04:22:06;;;;;;;93.27;36.10;;;;;;;0.85;84.45;98905.70;127179;1093;23335;-77
2020/12/12 04:24:35;;;;;;;96.97;34.53;;;;;;;0.86;83.60;98912.72;126994;1098;23521;-77
2020/12/12 04:27:04;;;;;;;101.33;35.00;;;;;;;0.83;84.08;98906.90;126712;1098;23483;-75
2020/12/12 04:29:33;;;;;;;97.92;37.60;;;;;;;0.84;83.92;98910.42;127069;1098;23385;-77
2020/12/12 04:32:04;;;;;;;116.43;39.93;;;;;;;0.87;84.27;98908.77;126821;1098;23425;-76
2020/12/12 04:34:32;;;;;;;;;;;;;;;0.86;84.37;98909.97;126830;1098;23357;-76
2020/12/12 04:37:01;;;;;;;102.73;39.63;;;;;;;0.86;84.32;98908.00;126770;1098;21746;-76
2020/12/12 04:39:30;;;;;;;118.73;45.97;;;;;;;0.87;83.75;98915.02;126682;1098;23379;-76
2020/12/12 04:42:00;;;;;;;105.30;43.27;;;;;;;0.90;84.49;98907.86;126692;1098;23322;-76
2020/12/12 04:44:31;;;;;;;105.05;38.80;;;;;;;0.88;84.19;98910.29;127169;1098;26937;-76
2020/12/12 04:47:01;;;;;;;111.55;41.83;;;;;;;0.88;83.89;98902.05;127194;1098;23389;-77
2020/12/12 04:49:30;;;;;;;119.25;41.08;;;;;;;0.87;83.79;98903.27;127162;1098;25211;-77
2020/12/12 04:52:02;;;;;;;118.63;45.17;;;;;;;0.88;84.02;98899.30;127444;1097;23385;-77
2020/12/12 04:54:34;;;;;;;95.10;39.30;;;;;;;0.87;83.75;98901.27;127003;1098;23381;-77
2020/12/12 04:57:05;;;;;;;96.33;38.63;;;;;;;0.87;83.60;98903.27;126763;1098;23483;-77
2020/12/12 04:59:35;;;;;;;93.10;36.50;;;;;;;0.86;83.69;98907.22;126828;1098;25204;-78
2020/12/12 05:02:04;;;;;;;97.15;34.75;;;;;;;0.82;83.60;98896.36;126810;1098;28286;-77
2020/12/12 05:04:34;;;;;;;93.97;37.50;;;;;;;0.80;83.48;98896.82;126789;1098;23334;-78
2020/12/12 05:07:04;;;;;;;90.13;35.97;;;;;;;0.79;83.90;98910.98;126813;1098;23413;-76
2020/12/12 05:09:33;;;;;;;91.10;36.00;;;;;;;0.78;83.93;98907.48;127165;1098;24722;-77
2020/12/12 05:12:03;;;;;;;87.70;32.97;;;;;;;0.75;84.09;98913.08;127298;1098;24586;-77
2020/12/12 05:14:32;;;;;;;95.40;34.63;;;;;;;0.72;84.36;98914.73;127233;1098;23353;-78
2020/12/12 05:17:02;;;;;;;85.33;34.83;;;;;;;0.73;84.11;98913.53;127687;1098;23311;-77
2020/12/12 05:19:31;;;;;;;;;;;;;;;0.70;84.14;98921.91;127232;1098;26353;-77
2020/12/12 05:22:03;;;;;;;99.93;35.70;;;;;;;0.70;84.14;98917.16;127299;1098;21477;-78
2020/12/12 05:24:32;;;;;;;90.95;32.00;;;;;;;0.66;83.54;98916.52;127878;1098;23619;-78
2020/12/12 05:27:02;;;;;;;84.97;30.43;;;;;;;0.62;83.95;98910.37;127607;1098;23482;-78
2020/12/12 05:29:33;;;;;;;74.47;31.70;;;;;;;0.61;83.80;98922.59;127235;1098;23312;-78
2020/12/12 05:32:03;;;;;;;75.23;31.67;;;;;;;0.59;84.05;98919.52;126924;1098;23521;-78
2020/12/12 05:34:31;;;;;;;;;;;;;;;0.62;83.88;98921.36;126851;1098;24825;-77
2020/12/12 05:37:02;;;;;;;95.25;33.45;;;;;;;0.61;84.09;98930.05;126874;1098;24219;-78
2020/12/12 05:39:29;;;;;;;;;;;;;;;0.59;83.90;98916.77;126901;1098;23726;-77
2020/12/12 05:42:00;;;;;;;80.53;31.63;;;;;;;0.59;84.05;98924.23;126755;1098;21484;-77
2020/12/12 05:44:31;;;;;;;77.23;26.57;;;;;;;0.58;84.36;98923.45;126819;1098;23309;-76
2020/12/12 05:47:03;;;;;;;78.20;31.05;;;;;;;0.58;83.58;98914.48;126732;1098;23379;-77
2020/12/12 05:49:35;;;;;;;77.93;30.57;;;;;;;0.57;83.95;98915.67;126846;1098;23309;-77
2020/12/12 05:52:05;;;;;;;84.77;31.47;;;;;;;0.57;84.15;98913.70;127042;1098;23369;-77
2020/12/12 05:54:34;;;;;;;83.17;29.98;;;;;;;0.57;83.74;98913.70;126948;1098;26358;-77
2020/12/12 05:57:06;;;;;;;74.30;28.07;;;;;;;0.56;84.15;98920.39;126901;1098;23556;-78
2020/12/12 05:59:36;;;;;;;65.67;28.25;;;;;;;0.56;83.68;98920.39;126923;1098;23355;-77
2020/12/12 06:02:10;;;;;;;66.82;26.48;;;;;;;0.53;84.15;98924.04;127159;1098;23438;-77
2020/12/12 06:04:48;;;;;;;77.73;31.17;;;;;;;0.52;84.27;98927.20;127034;1098;23928;-77
2020/12/12 06:07:29;;;;;;;91.20;35.03;;;;;;;0.49;84.06;98922.61;127067;1098;23474;-77
2020/12/12 06:10:01;;;;;;;97.90;41.47;;;;;;;0.47;84.29;98925.81;126976;1098;25270;-78
2020/12/12 06:12:31;;;;;;;86.97;33.53;;;;;;;0.46;83.58;98923.48;127514;1098;23357;-76
2020/12/12 06:15:01;;;;;;;72.55;29.52;;;;;;;0.44;84.11;98921.19;126622;1099;23324;-76
2020/12/12 06:17:46;;;;;;;73.63;28.17;;;;;;;0.45;84.12;98922.74;127048;1098;23513;-78
2020/12/12 06:20:16;;;;;;;80.67;29.80;;;;;;;0.43;83.83;98922.42;126820;1098;23630;-76
2020/12/12 06:22:47;;;;;;;68.78;29.35;;;;;;;0.43;83.67;98921.64;126809;1098;26392;-76
2020/12/12 06:25:21;;;;;;;86.77;31.80;;;;;;;0.41;83.80;98927.58;126735;1098;24441;-76
2020/12/12 06:27:54;;;;;;;82.15;29.45;;;;;;;0.40;84.19;98920.55;126547;1098;23468;-77
2020/12/12 06:30:26;;;;;;;76.17;29.20;;;;;;;0.42;83.76;98923.61;126796;1098;23376;-76
2020/12/12 06:33:01;;;;;;;67.77;27.43;;;;;;;0.42;83.76;98918.13;126881;1098;23474;-77
2020/12/12 06:35:34;;;;;;;72.10;27.53;;;;;;;0.42;84.13;98925.58;126824;1098;23350;-76
2020/12/12 06:38:27;;;;;;;78.13;29.70;;;;;;;0.42;84.37;98931.08;126811;1098;23373;-77
2020/12/12 06:40:58;;;;;;;76.30;27.63;;;;;;;0.46;84.23;98923.48;126833;1098;27831;-77
2020/12/12 06:43:32;;;;;;;82.73;29.53;;;;;;;0.46;83.90;98932.50;126812;1098;28382;-77
2020/12/12 06:46:02;;;;;;;80.27;28.90;;;;;;;0.46;83.74;98928.98;127520;1093;23363;-77
2020/12/12 06:48:33;;;;;;;72.60;27.82;;;;;;;0.46;83.86;98937.21;126839;1096;23381;-78
2020/12/12 06:51:03;;;;;;;74.47;27.50;;;;;;;0.47;84.38;98936.80;126855;1097;23597;-78
2020/12/12 06:53:34;;;;;;;71.77;26.37;;;;;;;0.46;83.85;98945.45;126995;1097;23457;-78
2020/12/12 06:56:11;;;;;;;78.63;27.70;;;;;;;0.44;83.85;98937.66;127030;1097;26488;-77
2020/12/12 06:58:41;;;;;;;81.80;31.47;;;;;;;0.44;84.20;98937.66;126841;1098;23598;-78
2020/12/12 07:01:33;;;;;;;98.27;39.70;;;;;;;0.45;84.61;98943.93;126981;1098;28520;-77
2020/12/12 07:04:04;;;;;;;79.23;32.90;;;;;;;0.48;83.90;98943.80;126846;1098;23327;-78
2020/12/12 07:06:34;;;;;;;75.30;29.35;;;;;;;0.51;84.69;98942.94;126749;1098;27184;-77
2020/12/12 07:09:06;;;;;;;75.97;30.93;;;;;;;0.55;84.02;98940.06;126903;1098;26785;-77
2020/12/12 07:11:36;;;;;;;86.40;31.30;;;;;;;0.55;83.97;98946.33;126869;1098;26744;-78
2020/12/12 07:14:05;;;;;;;86.40;31.37;;;;;;;0.56;84.40;98950.59;127085;1098;24978;-78
2020/12/12 07:16:35;;;;;;;90.87;30.80;;;;;;;0.55;83.92;98951.05;126896;1098;25210;-77
2020/12/12 07:19:05;;;;;;;83.58;31.68;;;;;;;0.54;83.96;98942.03;126966;1098;24846;-78
2020/12/12 07:21:39;;;;;;;77.50;29.25;;;;;;;0.53;84.60;98946.00;126782;1098;23377;-77
2020/12/12 07:24:08;;;;;;;88.70;36.37;;;;;;;0.56;84.10;98950.59;127327;1098;23334;-78
2020/12/12 07:26:37;;;;;;;94.45;39.10;;;;;;;0.56;84.07;98949.85;126910;1098;23315;-78
2020/12/12 07:29:07;;;;;;;91.27;34.67;;;;;;;0.53;84.39;98940.52;126798;1098;23332;-77
2020/12/12 07:31:37;;;;;;;83.30;31.73;;;;;;;0.54;83.85;98946.75;126995;1098;23332;-77
2020/12/12 07:34:06;;;;;;;59.60;23.85;;;;;;;0.55;83.81;98949.08;126696;1098;23382;-78
2020/12/12 07:36:34;;;;;;;81.37;30.10;;;;;;;0.57;84.31;98957.64;126902;1098;23307;-78
2020/12/12 07:39:09;;;;;;;99.93;39.97;;;;;;;0.56;84.00;98956.09;126881;1098;25218;-78
2020/12/12 07:41:45;;;;;;;114.90;55.10;;;;;;;0.56;84.35;98972.56;126707;1098;23457;-78
2020/12/12 07:44:14;;;;;;;85.33;37.20;;;;;;;0.55;84.54;98968.30;127070;1090;23300;-79
2020/12/12 07:46:56;;;;;;;95.05;40.30;;;;;;;0.54;84.41;98974.98;126884;1098;23422;-78
2020/12/12 07:49:25;;;;;;;88.70;37.17;;;;;;;0.58;84.53;98972.14;126978;1090;23366;-77
2020/12/12 07:52:06;;;;;;;83.00;33.90;;;;;;;0.61;83.82;98968.50;126861;1098;23456;-78
2020/12/12 07:54:40;;;;;;;81.25;34.15;;;;;;;0.63;84.47;98963.33;127098;1098;23542;-77
2020/12/12 07:57:11;;;;;;;93.57;42.47;;;;;;;0.66;83.82;98959.71;126898;1098;23382;-78
2020/12/12 07:59:41;;;;;;;101.70;44.47;;;;;;;0.67;84.00;98972.22;126937;1098;23373;-78
2020/12/12 08:02:13;;;;;;;146.40;57.10;;;;;;;0.68;84.07;98963.53;127023;1098;24254;-78
2020/12/12 08:04:42;;;;;;;143.00;58.50;;;;;;;0.71;84.37;98967.38;126842;1098;23454;-77
2020/12/12 08:07:18;;;;;;;137.03;51.65;;;;;;;0.73;84.05;98975.94;127192;1098;23311;-78
2020/12/12 08:09:49;;;;;;;106.53;46.90;;;;;;;0.74;84.48;98977.48;126807;1098;23533;-76
2020/12/12 08:12:31;;;;;;;96.50;41.37;;;;;;;0.73;84.43;98973.19;126887;1098;23520;-77
2020/12/12 08:15:12;;;;;;;115.47;51.13;;;;;;;0.74;84.49;98981.01;126971;1098;26741;-77
2020/12/12 08:17:42;;;;;;;103.23;39.87;;;;;;;0.76;84.41;98983.30;126920;1098;26886;-77
2020/12/12 08:20:16;;;;;;;86.40;34.75;;;;;;;0.75;83.61;98976.26;127005;1098;23521;-78
2020/12/12 08:22:46;;;;;;;98.13;39.43;;;;;;;0.75;83.85;98974.29;127455;1090;26646;-78
2020/12/12 08:25:17;;;;;;;94.87;38.43;;;;;;;0.80;84.50;98973.73;126910;1098;26511;-78
2020/12/12 08:27:47;;;;;;;90.37;37.67;;;;;;;0.81;83.99;98985.47;126973;1098;23443;-77
2020/12/12 08:30:16;;;;;;;88.97;35.23;;;;;;;0.85;83.77;98979.87;126895;1098;23441;-77
2020/12/12 08:32:47;;;;;;;89.10;34.50;;;;;;;0.87;84.19;98986.44;126949;1098;23315;-78
2020/12/12 08:35:20;;;;;;;107.27;39.53;;;;;;;0.87;84.05;98983.70;127169;1098;24826;-78
2020/12/12 08:37:56;;;;;;;109.90;42.73;;;;;;;0.88;83.86;98987.22;127108;1098;24113;-77
2020/12/12 08:40:27;;;;;;;96.07;36.67;;;;;;;0.88;84.47;98989.97;126965;1098;23359;-78
2020/12/12 08:43:08;;;;;;;84.07;29.13;;;;;;;0.90;83.95;98991.06;127016;1098;26487;-77
2020/12/12 08:45:39;;;;;;;72.73;30.67;;;;;;;0.91;84.30;98984.34;126916;1098;23369;-77
2020/12/12 08:48:12;;;;;;;78.75;35.75;;;;;;;0.93;84.03;98989.41;126915;1098;23429;-78
2020/12/12 08:50:50;;;;;;;85.30;33.87;;;;;;;0.92;84.19;98982.37;127023;1098;23474;-78
2020/12/12 08:53:29;;;;;;;108.33;40.30;;;;;;;0.93;83.70;98984.69;126980;1098;23306;-78
2020/12/12 08:56:13;;;;;;;106.50;43.08;;;;;;;0.97;84.38;98992.81;126877;1098;23350;-79
2020/12/12 08:58:48;;;;;;;89.73;37.13;;;;;;;1.00;83.70;98991.91;127346;1098;24847;-78
2020/12/12 09:01:32;;;;;;;91.77;38.43;;;;;;;1.02;84.31;98997.72;126916;1098;23467;-78
2020/12/12 09:04:04;;;;;;;79.33;33.67;;;;;;;1.06;84.13;98992.87;126912;1098;23442;-78
2020/12/12 09:06:46;;;;;;;83.53;35.83;;;;;;;1.07;83.97;98997.95;127005;1098;23483;-78
2020/12/12 09:09:17;;;;;;;79.83;30.40;;;;;;;1.07;84.19;98989.70;126987;1098;23318;-78
2020/12/12 09:11:47;;;;;;;82.07;31.43;;;;;;;1.06;83.62;98995.62;126911;1098;23377;-78
2020/12/12 09:14:15;;;;;;;;;;;;;;;1.07;84.23;98997.95;126977;1098;23330;-79
2020/12/12 09:16:54;;;;;;;81.43;32.43;;;;;;;1.08;84.39;98991.22;126955;1098;21528;-79
2020/12/12 09:19:24;;;;;;;74.50;31.15;;;;;;;1.10;83.65;98996.27;127058;1098;23369;-78
2020/12/12 09:21:54;;;;;;;82.12;32.35;;;;;;;1.14;83.86;98994.94;127043;1098;23391;-79
2020/12/12 09:24:24;;;;;;;74.80;31.97;;;;;;;1.14;83.87;98994.94;127008;1098;23379;-78
2020/12/12 09:26:55;;;;;;;90.20;35.30;;;;;;;1.15;83.95;98985.48;126897;1098;28238;-78
2020/12/12 09:29:26;;;;;;;78.40;32.97;;;;;;;1.20;84.29;98992.41;126935;1098;26811;-77
2020/12/12 09:31:56;;;;;;;91.45;38.50;;;;;;;1.21;84.53;99000.20;127124;1098;25086;-79
2020/12/12 09:34:26;;;;;;;82.27;34.18;;;;;;;1.27;83.84;98989.39;126923;1098;23393;-78
2020/12/12 09:36:56;;;;;;;85.00;36.90;;;;;;;1.32;84.29;98992.35;127038;1098;23355;-79
2020/12/12 09:39:25;;;;;;;93.33;38.77;;;;;;;1.41;84.40;98988.88;126994;1098;25134;-77
2020/12/12 09:41:58;;;;;;;85.10;34.87;;;;;;;1.47;84.01;98985.11;127119;1098;23366;-78
2020/12/12 09:44:27;;;;;;;84.33;36.53;;;;;;;1.51;84.47;98993.25;127020;1098;27077;-80
2020/12/12 09:46:57;;;;;;;78.77;34.83;;;;;;;1.52;83.84;98986.52;127412;1098;28113;-80
2020/12/12 09:49:26;;;;;;;79.07;29.80;;;;;;;1.54;84.05;98990.36;127126;1098;29761;-78
2020/12/12 09:51:55;;;;;;;99.33;41.70;;;;;;;1.57;83.67;98994.95;127063;1090;23350;-78
2020/12/12 09:54:24;;;;;;;88.80;38.60;;;;;;;1.58;83.95;98996.50;127096;1090;23445;-78
2020/12/12 09:56:53;;;;;;;79.53;34.47;;;;;;;1.64;83.86;98996.69;127109;1098;27379;-78
2020/12/12 09:59:22;;;;;;;73.60;33.20;;;;;;;1.65;83.68;99000.98;127082;1098;23347;-80
2020/12/12 10:01:51;;;;;;;71.87;30.77;;;;;;;1.64;83.55;98996.69;127220;1090;27134;-79
2020/12/12 10:04:22;;;;;;;63.47;28.67;;;;;;;1.60;83.27;98994.07;127122;1098;23307;-79
2020/12/12 10:06:51;;;;;;;77.50;32.87;;;;;;;1.58;83.55;98990.23;127125;1098;23415;-79
2020/12/12 10:09:20;;;;;;;117.90;52.77;;;;;;;1.59;83.99;98989.03;127241;1090;23333;-80
2020/12/12 10:11:51;;;;;;;100.63;43.67;;;;;;;1.60;83.79;98987.80;127145;1098;23380;-79
2020/12/12 10:14:21;;;;;;;82.95;36.25;;;;;;;1.64;83.70;98991.18;127178;1098;23353;-80
2020/12/12 10:16:50;;;;;;;78.28;33.25;;;;;;;1.64;83.53;98983.70;127143;1098;25178;-78
2020/12/12 10:19:19;;;;;;;73.20;32.57;;;;;;;1.68;83.84;98991.81;127197;1098;24969;-78
2020/12/12 10:21:48;;;;;;;72.20;31.03;;;;;;;1.68;84.02;98999.33;127159;1098;23391;-84
2020/12/12 10:24:17;;;;;;;84.20;34.87;;;;;;;1.69;84.18;98996.11;127243;1098;23370;-81
2020/12/12 10:26:47;;;;;;;77.27;32.33;;;;;;;1.74;84.08;99000.28;127266;1098;23336;-84
2020/12/12 10:29:16;;;;;;;96.50;41.83;;;;;;;1.76;83.77;99000.59;127178;1098;24165;-80
2020/12/12 10:31:46;;;;;;;99.53;41.03;;;;;;;1.79;83.96;99003.20;127034;1098;23325;-81
2020/12/12 10:34:15;;;;;;;78.90;33.47;;;;;;;1.84;84.04;99004.61;127139;1098;23484;-83
2020/12/12 10:36:43;;;;;;;78.30;33.23;;;;;;;1.88;83.55;98999.74;127976;1098;26538;-81
2020/12/12 10:39:13;;;;;;;77.73;33.37;;;;;;;1.88;83.67;99003.27;127118;1098;23369;-81
2020/12/12 10:41:42;;;;;;;96.70;40.60;;;;;;;1.89;83.66;99004.02;127913;1098;23312;-82
2020/12/12 10:44:11;;;;;;;86.60;39.00;;;;;;;1.92;83.96;99008.63;127963;1098;23520;-83
2020/12/12 10:46:40;;;;;;;92.73;38.80;;;;;;;1.93;83.62;99008.17;128009;1098;24124;-85
2020/12/12 10:49:09;;;;;;;113.37;44.50;;;;;;;1.95;83.57;99007.72;127761;1098;23358;-81
2020/12/12 10:51:45;;;;;;;103.30;40.50;;;;;;;1.96;83.16;99009.27;127667;1098;26852;-81
2020/12/12 10:54:15;;;;;;;92.83;35.57;;;;;;;1.96;83.36;99015.55;128105;1090;23382;-80
2020/12/12 10:56:46;;;;;;;80.53;34.25;;;;;;;1.95;83.11;99005.73;127248;1098;23870;-80
2020/12/12 10:59:15;;;;;;;83.23;35.03;;;;;;;1.98;83.26;99015.08;127300;1098;27814;-81
2020/12/12 11:01:44;;;;;;;87.20;36.17;;;;;;;1.98;83.27;99004.85;127322;1098;23382;-80
2020/12/12 11:04:13;;;;;;;99.03;41.33;;;;;;;2.01;83.10;99005.91;127280;1098;23393;-81
2020/12/12 11:06:42;;;;;;;85.53;36.90;;;;;;;2.01;83.13;99003.16;127262;1098;23923;-80
2020/12/12 11:09:11;;;;;;;82.93;34.13;;;;;;;1.99;83.10;99002.84;127213;1098;23325;-81
2020/12/12 11:11:40;;;;;;;100.53;38.57;;;;;;;1.99;83.40;99000.09;128633;1090;23369;-81
2020/12/12 11:14:10;;;;;;;90.55;35.50;;;;;;;2.01;83.34;98998.43;127323;1098;23478;-82
2020/12/12 11:16:39;;;;;;;79.97;33.97;;;;;;;2.03;83.10;99000.75;127277;1090;23315;-80
2020/12/12 11:19:08;;;;;;;102.47;41.20;;;;;;;2.04;83.39;98994.78;127272;1098;26025;-80
2020/12/12 11:21:40;;;;;;;95.30;38.83;;;;;;;2.06;83.20;98995.10;127062;1098;24694;-78
2020/12/12 11:24:09;;;;;;;84.27;36.00;;;;;;;2.09;83.24;99005.19;127276;1090;28879;-79
2020/12/12 11:26:38;;;;;;;80.17;35.13;;;;;;;2.12;83.45;98998.02;127320;1098;23470;-79
2020/12/12 11:29:07;;;;;;;93.20;36.33;;;;;;;2.15;83.50;98994.37;127344;1090;23415;-81